Time;durP1;ratioP1;P1;durP2;ratioP2;P2;SDS_P1;SDS_P2;PMS_P1;PMS_P2;Temp;Humidity;BMP_temperature;BMP_pressure;BME280_temperature;BME280_humidity;BME280_pressure;Samples;Min_cycle;Max_cycle;Signal;HPM_P1;HPM_P2
2022/02/14 00:02:16;;;;;;;7.90;4.03;;;;;;;9.80;64.97;99829.38;5013385;28;20116;-36
2022/02/14 00:04:42;;;;;;;8.35;3.92;;;;;;;9.84;64.91;99822.81;5016943;28;20034;-38
2022/02/14 00:07:07;;;;;;;16.50;3.83;;;;;;;9.85;64.92;99816.66;5017207;28;20500;-36
2022/02/14 00:09:33;;;;;;;9.70;4.00;;;;;;;9.80;65.12;99803.56;5016848;28;20105;-37
2022/02/14 00:11:58;;;;;;;12.55;3.92;;;;;;;9.80;65.36;99806.16;5016538;28;20022;-34
2022/02/14 00:14:23;;;;;;;10.40;4.05;;;;;;;9.83;65.24;99798.00;4998926;28;20382;-35
2022/02/14 00:16:48;;;;;;;15.52;4.45;;;;;;;9.79;65.68;99799.41;5016494;28;20021;-35
2022/02/14 00:19:14;;;;;;;10.02;3.85;;;;;;;9.92;64.98;99794.19;5016422;28;20141;-36
2022/02/14 00:21:39;;;;;;;9.07;3.72;;;;;;;10.00;65.12;99779.47;5016205;28;20037;-35
2022/02/14 00:24:06;;;;;;;9.60;3.90;;;;;;;9.96;64.95;99781.69;5015765;28;20408;-35
2022/02/14 00:26:32;;;;;;;7.03;3.70;;;;;;;10.01;65.10;99779.28;5016204;28;20498;-35
2022/02/14 00:28:57;;;;;;;10.35;3.58;;;;;;;10.04;64.96;99784.00;5016122;28;20112;-36
2022/02/14 00:31:23;;;;;;;7.80;3.70;;;;;;;10.04;65.07;99786.59;5016417;28;20104;-34
2022/02/14 00:33:48;;;;;;;10.07;3.92;;;;;;;10.08;64.81;99780.00;5016128;28;20021;-33
2022/02/14 00:36:13;;;;;;;9.00;3.83;;;;;;;10.07;65.07;99760.38;5016033;28;20534;-34
2022/02/14 00:38:38;;;;;;;7.05;3.72;;;;;;;10.09;64.90;99755.78;5016349;28;20030;-36
2022/02/14 00:41:04;;;;;;;11.93;4.03;;;;;;;10.05;65.36;99764.94;4998315;28;20116;-35
2022/02/14 00:43:29;;;;;;;16.05;4.57;;;;;;;10.02;65.49;99749.09;5015956;28;20022;-36
2022/02/14 00:45:54;;;;;;;10.23;3.53;;;;;;;10.11;64.99;99763.31;5016939;28;20104;-36
2022/02/14 00:48:19;;;;;;;10.82;4.03;;;;;;;10.06;65.47;99752.81;5016314;28;20030;-36
2022/02/14 00:50:45;;;;;;;11.38;3.95;;;;;;;10.11;65.56;99776.22;5015759;28;20430;-35
2022/02/14 00:53:10;;;;;;;10.63;3.92;;;;;;;10.05;65.65;99736.53;5016058;28;20026;-36
2022/02/14 00:55:36;;;;;;;7.68;3.40;;;;;;;10.06;65.67;99748.44;5015778;28;20029;-35
2022/02/14 00:58:05;;;;;;;7.82;3.50;;;;;;;10.08;65.61;99736.13;4998120;28;20034;-35
2022/02/14 01:00:30;;;;;;;13.57;4.18;;;;;;;10.09;65.64;99742.06;5015811;28;20362;-36
2022/02/14 01:02:55;;;;;;;13.98;3.60;;;;;;;10.08;65.84;99737.91;5015534;28;20033;-34
2022/02/14 01:05:21;;;;;;;9.88;4.18;;;;;;;10.12;65.47;99723.59;5015794;28;20026;-36
2022/02/14 01:07:46;;;;;;;9.60;3.17;;;;;;;10.07;66.11;99721.66;5015574;28;20381;-36
2022/02/14 01:10:13;;;;;;;13.13;3.90;;;;;;;10.05;66.04;99728.00;5015435;28;20469;-35
2022/02/14 01:12:39;;;;;;;7.70;3.45;;;;;;;9.96;66.20;99706.03;5015708;28;20362;-35
2022/02/14 01:15:05;;;;;;;11.25;3.60;;;;;;;10.07;66.26;99700.19;5014270;28;20030;-38
2022/02/14 01:17:33;;;;;;;8.63;3.95;;;;;;;10.03;66.39;99701.63;5015528;28;20033;-37
2022/02/14 01:19:58;;;;;;;11.60;3.65;;;;;;;10.11;66.04;99688.44;5015494;28;20033;-35
2022/02/14 01:22:23;;;;;;;11.35;3.67;;;;;;;10.13;66.37;99678.72;5015195;28;20033;-36
2022/02/14 01:24:49;;;;;;;10.05;4.07;;;;;;;10.10;66.35;99684.31;5015110;28;20061;-35
2022/02/14 01:27:14;;;;;;;9.48;3.60;;;;;;;10.08;66.42;99678.56;5015323;28;20021;-37
2022/02/14 01:29:40;;;;;;;13.20;4.18;;;;;;;10.04;66.44;99677.38;5015034;28;20113;-37
2022/02/14 01:32:05;;;;;;;13.27;3.70;;;;;;;10.00;66.81;99666.69;5014982;28;20022;-33
2022/02/14 01:34:31;;;;;;;11.57;3.85;;;;;;;9.93;66.77;99665.97;5015010;28;20034;-36
2022/02/14 01:36:56;;;;;;;13.82;4.10;;;;;;;9.94;66.88;99668.31;5015139;28;20026;-36
2022/02/14 01:39:22;;;;;;;15.80;3.70;;;;;;;9.93;66.97;99668.53;5014843;28;20026;-34
2022/02/14 01:41:47;;;;;;;12.07;3.85;;;;;;;9.85;67.24;99666.22;5015101;28;20112;-34
2022/02/14 01:44:31;;;;;;;9.20;3.58;;;;;;;9.78;67.39;99652.53;5015083;28;20483;-36
2022/02/14 01:46:56;;;;;;;6.30;3.53;;;;;;;9.83;67.45;99640.59;5015051;28;20108;-36
2022/02/14 01:49:21;;;;;;;11.27;3.53;;;;;;;9.74;67.83;99649.59;5014787;28;20451;-35
2022/02/14 01:51:46;;;;;;;11.25;3.90;;;;;;;9.74;67.65;99662.50;5014659;28;20036;-34
2022/02/14 01:54:12;;;;;;;15.88;3.50;;;;;;;9.71;68.06;99632.75;5014866;28;20117;-35
2022/02/14 01:56:37;;;;;;;11.10;3.75;;;;;;;9.76;67.71;99637.28;5014537;28;20044;-37
2022/02/14 01:59:02;;;;;;;12.68;3.10;;;;;;;9.69;67.74;99629.56;5014740;28;20116;-34
2022/02/14 02:01:28;;;;;;;9.25;3.55;;;;;;;9.66;68.23;99630.00;5014484;28;20053;-32
2022/02/14 02:03:53;;;;;;;9.88;3.50;;;;;;;9.69;67.89;99615.88;5014702;28;20049;-38
2022/02/14 02:06:18;;;;;;;10.95;3.78;;;;;;;9.66;67.74;99609.34;5014717;28;20083;-35
2022/02/14 02:08:44;;;;;;;10.88;3.50;;;;;;;9.68;67.97;99622.06;5014890;28;20018;-34
2022/02/14 02:13:53;;;;;;;9.85;3.45;;;;;;;9.62;68.44;99602.25;5014918;28;20094;-36
2022/02/14 02:16:18;;;;;;;6.25;3.20;;;;;;;9.66;68.17;99611.94;4996516;28;20516;-36
2022/02/14 02:18:43;;;;;;;7.05;3.00;;;;;;;9.62;68.43;99600.47;5014430;28;20030;-36
2022/02/14 02:21:09;;;;;;;10.82;3.28;;;;;;;9.63;68.25;99602.03;5014626;28;20026;-35
2022/02/14 02:23:39;;;;;;;9.20;2.95;;;;;;;9.64;68.10;99608.78;5013920;28;20046;-38
2022/02/14 02:26:04;;;;;;;6.85;3.25;;;;;;;9.56;68.41;99591.00;5014195;28;20029;-34
2022/02/14 02:28:30;;;;;;;8.77;3.10;;;;;;;9.67;67.97;99590.31;5014601;28;20030;-35
2022/02/14 02:30:55;;;;;;;7.50;3.20;;;;;;;9.65;68.09;99581.22;5014254;28;20064;-34
2022/02/14 02:33:20;;;;;;;9.38;3.35;;;;;;;9.61;68.36;99575.69;5014271;28;20026;-35
2022/02/14 02:35:45;;;;;;;7.03;3.33;;;;;;;9.63;68.56;99578.81;5013890;28;20029;-35
2022/02/14 02:38:11;;;;;;;8.68;3.10;;;;;;;9.63;68.62;99568.50;5014424;28;20372;-34
2022/02/14 02:40:36;;;;;;;12.07;3.28;;;;;;;9.62;68.61;99555.84;5014090;28;20107;-34
2022/02/14 02:43:01;;;;;;;10.82;3.00;;;;;;;9.64;68.17;99570.09;4996259;28;20429;-35
2022/02/14 02:45:27;;;;;;;7.03;3.03;;;;;;;9.66;68.17;99557.75;5013781;28;20038;-35
2022/02/14 02:47:55;;;;;;;7.63;2.97;;;;;;;9.74;68.47;99554.13;5014020;28;20024;-35
2022/02/14 02:50:20;;;;;;;8.38;2.95;;;;;;;9.83;67.60;99563.19;5013738;28;20029;-36
2022/02/14 02:52:46;;;;;;;9.02;2.78;;;;;;;9.79;67.83;99562.03;5013722;28;20014;-36
2022/02/14 02:55:11;;;;;;;8.10;3.08;;;;;;;9.85;67.70;99550.88;5013926;28;20116;-36
2022/02/14 02:57:36;;;;;;;7.38;2.80;;;;;;;9.83;67.78;99539.97;5013866;28;20353;-35
2022/02/14 03:00:02;;;;;;;6.22;2.58;;;;;;;9.86;67.46;99536.19;5014440;28;20045;-36
2022/02/14 03:02:27;;;;;;;5.85;2.22;;;;;;;9.85;67.38;99539.78;5013396;28;20034;-37
2022/02/14 03:04:53;;;;;;;11.93;2.45;;;;;;;9.88;67.40;99555.63;5013498;28;20333;-35
2022/02/14 03:07:18;;;;;;;12.48;2.70;;;;;;;9.91;67.34;99551.81;5013530;28;20030;-35
2022/02/14 03:09:43;;;;;;;7.78;2.85;;;;;;;9.84;67.59;99533.81;5013395;28;20431;-34
2022/02/14 03:12:09;;;;;;;8.05;2.95;;;;;;;9.86;67.55;99536.97;5013453;28;20049;-36
2022/02/14 03:14:38;;;;;;;6.53;2.72;;;;;;;9.87;67.43;99524.88;5013357;28;20029;-35
2022/02/14 03:17:04;;;;;;;7.38;2.60;;;;;;;9.89;67.29;99522.84;5013385;28;20053;-36
2022/02/14 03:19:30;;;;;;;5.43;2.65;;;;;;;9.90;67.30;99525.22;5013625;28;20048;-36
2022/02/14 03:21:55;;;;;;;8.85;2.80;;;;;;;9.89;67.35;99510.72;5013554;28;20376;-35
2022/02/14 03:24:20;;;;;;;9.23;2.70;;;;;;;9.88;67.83;99504.00;5013187;28;20045;-36
2022/02/14 03:26:45;;;;;;;7.03;2.50;;;;;;;9.87;67.45;99492.13;5013603;28;20092;-36
2022/02/14 03:29:14;;;;;;;7.75;2.40;;;;;;;9.86;67.88;99485.34;5013377;28;20030;-35
2022/02/14 03:31:39;;;;;;;8.60;2.90;;;;;;;9.86;67.94;99494.91;5013289;28;20018;-36
2022/02/14 03:34:05;;;;;;;8.55;2.75;;;;;;;9.82;67.80;99488.59;5013333;28;20037;-34
2022/02/14 03:36:30;;;;;;;4.95;2.53;;;;;;;9.80;67.60;99493.94;4995409;28;20025;-35
2022/02/14 03:38:55;;;;;;;7.97;2.50;;;;;;;9.83;67.73;99488.38;5016324;28;20029;-36
2022/02/14 03:41:21;;;;;;;7.15;2.50;;;;;;;9.79;68.04;99482.06;5016969;28;20026;-35
2022/02/14 03:43:47;;;;;;;8.30;2.92;;;;;;;9.88;67.62;99509.16;5017296;28;20476;-35
2022/02/14 03:46:12;;;;;;;6.28;2.40;;;;;;;9.85;67.58;99481.22;5016977;28;20425;-35
2022/02/14 03:48:37;;;;;;;7.25;2.20;;;;;;;9.89;67.52;99484.94;5016898;28;20065;-34
2022/02/14 03:51:03;;;;;;;8.80;2.60;;;;;;;9.83;67.76;99464.34;5017052;28;20072;-34
2022/02/14 03:53:28;;;;;;;7.35;2.85;;;;;;;9.81;68.26;99474.91;5017115;28;20032;-34
2022/02/14 03:55:54;;;;;;;10.93;2.55;;;;;;;9.89;67.58;99473.81;5016764;28;20080;-36
2022/02/14 03:58:19;;;;;;;6.88;2.40;;;;;;;9.88;67.73;99470.47;5016740;28;20026;-35
2022/02/14 04:00:45;;;;;;;12.60;2.60;;;;;;;9.85;68.01;99470.88;5017368;28;20045;-33
2022/02/14 04:03:10;;;;;;;10.98;2.88;;;;;;;9.88;67.92;99460.13;5016672;28;20018;-35
2022/02/14 04:05:36;;;;;;;6.07;2.30;;;;;;;9.94;67.49;99464.44;5016838;28;20026;-34
2022/02/14 04:08:01;;;;;;;13.13;2.55;;;;;;;9.95;67.55;99462.63;5016666;28;20472;-36
2022/02/14 04:10:27;;;;;;;5.13;2.10;;;;;;;9.90;67.87;99463.28;5016489;28;20026;-35
2022/02/14 04:12:53;;;;;;;8.77;3.22;;;;;;;9.97;67.69;99472.75;5016974;28;20065;-35
2022/02/14 04:15:19;;;;;;;9.02;2.60;;;;;;;9.97;67.77;99460.63;5016398;28;20033;-34
2022/02/14 04:17:44;;;;;;;10.50;2.63;;;;;;;9.93;67.74;99459.50;5016666;28;20050;-37
2022/02/14 04:20:10;;;;;;;5.90;2.60;;;;;;;9.97;67.88;99463.22;5016370;28;20030;-35
2022/02/14 04:22:37;;;;;;;6.82;3.00;;;;;;;9.97;68.08;99450.31;5016185;28;20540;-34
2022/02/14 04:25:05;;;;;;;5.68;2.28;;;;;;;9.99;67.77;99458.63;5016114;28;20049;-36
2022/02/14 04:27:30;;;;;;;7.60;2.45;;;;;;;10.05;67.63;99455.19;5016181;28;20025;-38
2022/02/14 04:29:56;;;;;;;9.05;2.63;;;;;;;9.97;67.71;99449.53;5016462;28;20362;-35
2022/02/14 04:32:21;;;;;;;9.90;2.50;;;;;;;10.05;67.92;99455.19;5016390;28;20026;-35
2022/02/14 04:34:46;;;;;;;6.65;2.65;;;;;;;10.06;67.78;99446.44;5016257;28;20493;-37
2022/02/14 04:37:12;;;;;;;6.40;2.38;;;;;;;10.09;67.80;99456.34;5015997;28;20113;-35
2022/02/14 04:39:37;;;;;;;8.07;2.60;;;;;;;10.10;67.89;99452.75;5016254;28;20105;-34
2022/02/14 04:42:03;;;;;;;4.53;2.10;;;;;;;10.14;67.99;99468.59;5016119;28;20026;-35
2022/02/14 04:44:28;;;;;;;11.25;2.40;;;;;;;10.13;67.74;99464.44;4998294;28;20042;-34
2022/02/14 04:46:53;;;;;;;5.95;2.58;;;;;;;10.13;67.89;99443.81;5015782;28;20532;-34
2022/02/14 04:49:18;;;;;;;6.10;2.38;;;;;;;10.13;68.01;99456.72;5015751;28;20072;-36
2022/02/14 04:51:44;;;;;;;6.40;2.20;;;;;;;10.13;67.91;99472.97;5015785;28;20030;-36
2022/02/14 04:54:09;;;;;;;7.07;2.58;;;;;;;10.20;67.73;99467.75;5016229;28;20513;-36
2022/02/14 04:56:35;;;;;;;6.95;2.75;;;;;;;10.17;67.89;99450.09;5015906;28;20021;-36
2022/02/14 04:59:00;;;;;;;6.50;2.50;;;;;;;10.22;67.99;99462.38;5016191;28;20024;-35
2022/02/14 05:01:26;;;;;;;9.63;2.30;;;;;;;10.24;67.93;99457.75;5015767;28;20430;-35
2022/02/14 05:03:52;;;;;;;6.93;2.53;;;;;;;10.13;68.06;99436.84;5015575;28;20474;-36
2022/02/14 05:06:18;;;;;;;12.88;2.35;;;;;;;10.28;67.84;99443.47;5015501;28;20029;-37
2022/02/14 05:08:43;;;;;;;10.02;2.63;;;;;;;10.30;67.80;99460.31;5015738;28;20037;-38
2022/02/14 05:11:08;;;;;;;8.77;2.30;;;;;;;10.27;68.08;99454.78;5015339;28;20018;-35
2022/02/14 05:13:34;;;;;;;9.43;2.50;;;;;;;10.22;68.40;99447.66;5015590;28;20101;-36
2022/02/14 05:16:00;;;;;;;5.68;2.28;;;;;;;10.29;68.02;99439.88;4997813;28;20018;-36
2022/02/14 05:18:25;;;;;;;6.22;2.45;;;;;;;10.32;67.88;99453.13;4997786;28;20034;-35
2022/02/14 05:20:51;;;;;;;8.10;2.72;;;;;;;10.32;68.10;99442.78;5015362;28;20530;-36
2022/02/14 05:23:16;;;;;;;6.10;2.67;;;;;;;10.35;68.09;99439.00;5014967;28;20048;-36
2022/02/14 05:25:41;;;;;;;9.02;2.45;;;;;;;10.35;68.10;99437.19;5015185;28;20025;-36
2022/02/14 05:28:08;;;;;;;7.90;2.35;;;;;;;10.41;67.97;99451.03;5015310;28;20033;-36
2022/02/14 05:30:34;;;;;;;8.02;2.28;;;;;;;10.48;67.84;99448.38;5014970;28;20029;-38
2022/02/14 05:32:59;;;;;;;8.73;2.30;;;;;;;10.50;67.96;99442.00;5014957;28;20025;-36
2022/02/14 05:35:25;;;;;;;6.75;2.58;;;;;;;10.48;68.13;99444.00;5014926;28;20025;-35
2022/02/14 05:37:51;;;;;;;9.07;2.40;;;;;;;10.51;67.97;99438.38;5014938;28;20445;-37
2022/02/14 05:40:17;;;;;;;5.60;2.10;;;;;;;10.55;67.97;99436.16;4998093;28;20025;-36
2022/02/14 05:42:42;;;;;;;5.47;2.15;;;;;;;10.59;67.83;99447.63;5014717;28;20465;-35
2022/02/14 05:45:08;;;;;;;8.18;2.40;;;;;;;10.55;68.08;99429.19;5015303;28;20072;-36
2022/02/14 05:47:33;;;;;;;10.95;2.75;;;;;;;10.59;68.04;99450.22;5014953;28;20038;-36
2022/02/14 05:49:58;;;;;;;6.95;2.38;;;;;;;10.68;67.75;99450.69;5014670;28;20030;-35
2022/02/14 05:52:24;;;;;;;3.90;2.20;;;;;;;10.61;68.17;99467.06;5014538;28;20022;-36
2022/02/14 05:54:49;;;;;;;6.10;2.28;;;;;;;10.64;68.73;99450.34;5014539;28;20064;-34
2022/02/14 05:57:14;;;;;;;8.05;2.40;;;;;;;10.65;68.79;99445.97;5014802;28;20113;-35
2022/02/14 05:59:39;;;;;;;5.43;2.10;;;;;;;10.67;69.11;99443.94;5014715;28;20025;-35
2022/02/14 06:02:06;;;;;;;7.45;2.53;;;;;;;10.65;69.25;99433.84;5014603;28;20453;-35
2022/02/14 06:04:32;;;;;;;5.30;2.40;;;;;;;10.67;69.97;99454.28;5014629;28;20030;-34
2022/02/14 06:06:57;;;;;;;10.23;2.80;;;;;;;10.68;70.22;99461.03;5014301;28;20499;-35
2022/02/14 06:09:22;;;;;;;4.88;2.10;;;;;;;10.66;70.09;99452.72;5014939;28;20053;-34
2022/02/14 06:11:48;;;;;;;9.95;2.58;;;;;;;10.67;70.34;99457.63;5014366;28;20060;-35
2022/02/14 06:14:13;;;;;;;8.98;2.30;;;;;;;10.67;70.23;99473.16;5014235;28;20469;-36
2022/02/14 06:16:39;;;;;;;7.00;2.00;;;;;;;10.74;70.46;99468.69;5014261;28;20033;-36
2022/02/14 06:19:04;;;;;;;7.13;2.70;;;;;;;10.72;70.70;99467.34;5014256;28;20044;-35
2022/02/14 06:21:30;;;;;;;4.72;1.92;;;;;;;10.66;70.30;99465.63;5014401;28;20022;-35
2022/02/14 06:23:55;;;;;;;9.02;2.45;;;;;;;10.74;70.27;99481.59;5013957;28;20400;-37
2022/02/14 06:26:20;;;;;;;6.82;2.20;;;;;;;10.73;70.69;99464.53;5014384;28;20468;-36
2022/02/14 06:28:45;;;;;;;4.07;2.20;;;;;;;10.73;70.59;99479.22;5014083;28;20080;-35
2022/02/14 06:31:11;;;;;;;5.45;2.22;;;;;;;10.73;70.67;99468.91;5014028;28;20017;-35
2022/02/14 06:33:37;;;;;;;11.40;2.10;;;;;;;10.69;70.82;99485.84;5013988;28;20022;-35
2022/02/14 06:36:06;;;;;;;5.07;2.40;;;;;;;10.72;70.71;99485.41;5013892;28;20079;-35
2022/02/14 06:38:31;;;;;;;4.50;2.10;;;;;;;10.76;70.47;99477.03;5014481;28;20053;-36
2022/02/14 06:40:57;;;;;;;5.57;2.30;;;;;;;10.77;70.43;99477.81;5014082;28;20033;-35
2022/02/14 06:43:23;;;;;;;7.35;2.20;;;;;;;10.76;70.31;99496.88;5014583;28;20026;-36
2022/02/14 06:45:49;;;;;;;5.63;2.28;;;;;;;10.71;70.10;99494.19;5013864;28;20056;-35
2022/02/14 06:48:14;;;;;;;3.85;2.20;;;;;;;10.72;70.16;99506.88;5013779;28;20026;-35
2022/02/14 06:50:39;;;;;;;8.05;2.10;;;;;;;10.70;70.57;99500.34;5013646;28;20041;-35
2022/02/14 06:53:04;;;;;;;6.40;2.25;;;;;;;10.78;70.62;99523.31;5014148;28;20029;-36
2022/02/14 06:55:30;;;;;;;8.45;2.33;;;;;;;10.72;71.00;99540.47;5013669;28;20061;-36
2022/02/14 06:57:55;;;;;;;9.18;2.50;;;;;;;10.66;72.02;99549.09;5013735;28;20018;-36
2022/02/14 07:00:23;;;;;;;4.95;2.70;;;;;;;10.50;73.76;99567.75;5013591;28;20021;-36
2022/02/14 07:02:49;;;;;;;5.70;2.33;;;;;;;9.97;78.20;99568.25;5013517;28;20036;-36
2022/02/14 07:05:21;;;;;;;6.25;2.50;;;;;;;9.67;80.58;99581.78;5013521;28;20022;-36
2022/02/14 07:07:48;;;;;;;6.35;2.70;;;;;;;9.60;81.24;99589.56;5013907;28;20109;-36
2022/02/14 07:10:14;;;;;;;11.82;2.50;;;;;;;9.38;83.02;99583.16;5013723;28;20441;-36
2022/02/14 07:12:39;;;;;;;4.80;2.30;;;;;;;9.21;85.12;99596.56;5014770;28;20376;-37
2022/02/14 07:15:05;;;;;;;7.50;2.40;;;;;;;9.10;86.00;99604.94;5017953;28;20030;-36
2022/02/14 07:17:32;;;;;;;7.53;2.60;;;;;;;8.98;86.84;99609.94;5017798;28;20440;-38
2022/02/14 07:19:57;;;;;;;5.20;2.38;;;;;;;8.93;87.71;99604.59;5017810;28;20388;-36
2022/02/14 07:22:23;;;;;;;4.60;2.42;;;;;;;8.77;89.06;99607.63;5017434;28;20026;-36
2022/02/14 07:24:48;;;;;;;5.30;2.30;;;;;;;8.65;89.85;99611.84;5017353;28;20050;-35
2022/02/14 07:27:14;;;;;;;3.50;2.38;;;;;;;8.67;90.75;99623.53;5017373;28;20030;-36
2022/02/14 07:29:40;;;;;;;5.50;2.47;;;;;;;8.61;90.96;99615.81;5017613;28;20357;-36
2022/02/14 07:32:06;;;;;;;3.97;2.10;;;;;;;8.62;91.29;99618.19;5017308;28;20014;-36
2022/02/14 07:34:31;;;;;;;3.70;2.15;;;;;;;8.58;90.83;99622.94;5017485;28;20034;-36
2022/02/14 07:36:58;;;;;;;5.82;2.50;;;;;;;8.57;91.54;99636.81;5017418;28;20037;-34
2022/02/14 07:39:23;;;;;;;5.82;2.25;;;;;;;8.51;91.94;99629.09;5017161;28;20034;-35
2022/02/14 07:41:50;;;;;;;4.28;2.20;;;;;;;8.51;91.80;99632.44;5016143;28;20514;-37
2022/02/14 07:44:16;;;;;;;5.63;2.30;;;;;;;8.56;91.76;99626.72;5016766;28;20049;-36
2022/02/14 07:46:41;;;;;;;4.05;2.38;;;;;;;8.44;92.48;99642.00;5016056;28;20111;-35
2022/02/14 07:49:06;;;;;;;8.77;2.60;;;;;;;8.39;92.46;99638.44;5016933;28;20380;-36
2022/02/14 07:51:32;;;;;;;7.18;2.75;;;;;;;8.29;92.23;99643.97;5017023;28;20371;-36
2022/02/14 07:53:57;;;;;;;5.45;2.70;;;;;;;8.39;93.25;99661.59;5017214;28;20030;-37
2022/02/14 07:56:22;;;;;;;6.82;3.33;;;;;;;8.43;93.01;99657.63;5016914;28;20021;-38
2022/02/14 07:58:49;;;;;;;6.78;3.20;;;;;;;8.42;92.66;99658.63;5017166;28;20022;-36
2022/02/14 08:01:15;;;;;;;5.18;3.13;;;;;;;8.52;92.11;99667.53;5017331;28;20029;-36
2022/02/14 08:03:41;;;;;;;9.10;3.15;;;;;;;8.52;92.11;99664.16;4999041;28;20465;-36
2022/02/14 08:06:06;;;;;;;5.07;3.03;;;;;;;8.58;91.40;99671.88;5016760;28;20080;-36
2022/02/14 08:08:31;;;;;;;6.97;3.38;;;;;;;8.71;91.51;99678.78;5016530;28;20044;-40
2022/02/14 08:10:57;;;;;;;8.38;3.40;;;;;;;8.56;91.55;99691.88;5016722;28;20022;-36
2022/02/14 08:13:22;;;;;;;7.25;3.67;;;;;;;8.52;92.50;99677.81;5016662;28;20181;-37
2022/02/14 08:15:47;;;;;;;6.60;3.40;;;;;;;8.47;93.20;99687.94;5016527;28;20380;-36
2022/02/14 08:18:13;;;;;;;4.80;3.38;;;;;;;8.49;92.77;99705.78;5016716;28;20025;-36
2022/02/14 08:20:38;;;;;;;7.18;3.85;;;;;;;8.58;92.08;99687.31;5016435;28;20066;-35
2022/02/14 08:23:04;;;;;;;9.32;3.90;;;;;;;8.88;91.83;99693.81;5015998;28;20034;-35
2022/02/14 08:25:31;;;;;;;6.45;3.20;;;;;;;8.80;90.88;99693.03;5016391;28;20025;-35
2022/02/14 08:27:58;;;;;;;7.57;3.08;;;;;;;8.82;90.54;99696.19;5016306;28;20443;-36
2022/02/14 08:30:23;;;;;;;9.38;3.08;;;;;;;8.69;90.87;99695.41;5016515;28;20384;-40
2022/02/14 08:32:50;;;;;;;6.05;3.00;;;;;;;8.70;90.96;99715.84;5016236;28;20113;-35
2022/02/14 08:35:17;;;;;;;8.27;3.33;;;;;;;8.63;90.54;99720.22;5016269;28;20025;-37
2022/02/14 08:37:47;;;;;;;8.40;3.00;;;;;;;8.78;90.49;99718.22;5016305;28;20014;-37
2022/02/14 08:40:16;;;;;;;7.78;2.85;;;;;;;8.98;89.29;99723.31;4999335;28;20026;-36
2022/02/14 08:42:42;;;;;;;5.40;3.08;;;;;;;9.25;88.05;99729.19;5015750;28;20022;-36
2022/02/14 08:45:07;;;;;;;9.10;2.78;;;;;;;9.28;86.89;99733.16;5015763;28;20041;-36
2022/02/14 08:47:33;;;;;;;6.55;3.03;;;;;;;9.40;86.58;99733.31;5015819;28;20017;-36
2022/02/14 08:50:00;;;;;;;5.30;2.80;;;;;;;9.39;86.98;99729.94;5015859;28;20026;-38
2022/02/14 08:52:27;;;;;;;8.38;2.70;;;;;;;9.25;86.52;99736.91;5015944;28;20037;-37
2022/02/14 08:54:56;;;;;;;5.43;2.80;;;;;;;9.13;86.74;99720.50;5016170;28;20025;-36
2022/02/14 08:57:21;;;;;;;5.78;2.67;;;;;;;9.29;87.02;99731.34;5016097;28;20380;-37
2022/02/14 08:59:48;;;;;;;9.00;2.85;;;;;;;9.03;86.35;99720.94;5015754;28;20021;-36
2022/02/14 09:02:13;;;;;;;8.73;2.60;;;;;;;9.40;85.30;99743.63;5016104;28;20029;-35
2022/02/14 09:04:38;;;;;;;5.70;2.60;;;;;;;9.42;84.58;99744.22;4998387;28;20025;-37
2022/02/14 09:07:05;;;;;;;4.88;2.58;;;;;;;9.84;83.37;99745.41;5015620;28;20366;-36
2022/02/14 09:09:31;;;;;;;6.75;2.42;;;;;;;9.67;83.60;99749.47;4997995;28;20464;-36
2022/02/14 09:11:56;;;;;;;5.43;2.30;;;;;;;9.90;82.57;99757.47;5015366;28;20101;-36
2022/02/14 09:14:22;;;;;;;5.03;2.50;;;;;;;10.67;79.28;99754.78;5015697;28;20070;-36
2022/02/14 09:16:49;;;;;;;8.70;2.25;;;;;;;10.52;79.82;99762.06;5015388;28;20052;-36
2022/02/14 09:19:14;;;;;;;6.28;2.58;;;;;;;10.12;80.87;99757.94;5015576;28;20507;-38
2022/02/14 09:21:42;;;;;;;4.95;2.42;;;;;;;9.75;82.47;99769.06;5015225;28;20053;-37
2022/02/14 09:24:12;;;;;;;4.85;2.40;;;;;;;9.75;82.26;99777.59;5014863;28;20056;-35
2022/02/14 09:26:38;;;;;;;4.28;2.35;;;;;;;9.37;83.66;99774.97;5015121;28;20113;-35
2022/02/14 09:29:03;;;;;;;6.00;2.85;;;;;;;9.30;83.53;99774.22;5015498;28;20034;-36
2022/02/14 09:31:29;;;;;;;3.47;2.50;;;;;;;9.22;84.23;99780.38;5015209;28;20072;-36
2022/02/14 09:33:54;;;;;;;5.97;3.28;;;;;;;9.22;84.18;99785.53;5014984;28;20026;-36
2022/02/14 09:36:19;;;;;;;7.30;3.13;;;;;;;9.26;85.07;99791.84;4996481;28;20381;-36
2022/02/14 09:38:48;;;;;;;7.70;3.60;;;;;;;9.31;84.54;99789.47;5014157;28;20649;-38
2022/02/14 09:41:16;;;;;;;5.68;3.17;;;;;;;9.41;83.04;99797.56;5012552;28;20034;-36
2022/02/14 09:43:43;;;;;;;5.45;3.30;;;;;;;9.21;84.41;99807.94;4994860;28;20089;-36
2022/02/14 09:46:09;;;;;;;5.55;3.15;;;;;;;9.36;83.28;99806.91;5012778;28;20522;-36
2022/02/14 09:48:35;;;;;;;5.22;3.08;;;;;;;9.40;83.30;99801.13;5013061;28;20026;-36
2022/02/14 09:51:00;;;;;;;5.60;3.50;;;;;;;9.56;83.34;99801.69;5012966;28;20025;-36
2022/02/14 09:53:28;;;;;;;4.65;3.15;;;;;;;9.54;82.94;99819.94;5012706;28;20026;-36
2022/02/14 09:55:54;;;;;;;4.68;3.42;;;;;;;9.47;82.01;99816.59;4994635;28;20058;-34
2022/02/14 09:58:19;;;;;;;6.18;3.35;;;;;;;9.51;82.63;99819.56;5014207;28;20137;-35
2022/02/14 10:00:44;;;;;;;6.68;3.15;;;;;;;9.56;81.98;99815.38;5014885;28;20030;-36
2022/02/14 10:03:22;;;;;;;5.72;3.28;;;;;;;9.73;80.97;99836.38;5014854;28;20110;-37
2022/02/14 10:05:59;;;;;;;6.40;3.13;;;;;;;9.64;81.79;99827.28;5013390;28;20034;-36
2022/02/14 10:08:29;;;;;;;8.82;3.90;;;;;;;9.50;81.79;99826.50;5011791;28;20080;-36
2022/02/14 10:11:12;;;;;;;9.02;3.03;;;;;;;9.56;81.33;99832.66;5014139;28;20491;-36
2022/02/14 10:13:39;;;;;;;8.60;3.20;;;;;;;9.77;80.85;99840.09;5014337;28;20036;-36
2022/02/14 10:16:10;;;;;;;8.52;3.08;;;;;;;9.75;79.79;99870.47;5014606;28;20029;-35
2022/02/14 10:18:37;;;;;;;9.35;3.60;;;;;;;9.78;78.99;99844.28;5014510;28;20427;-36
2022/02/14 10:21:22;;;;;;;7.75;3.03;;;;;;;9.97;78.82;99845.19;5014389;28;20113;-35
2022/02/14 10:24:08;;;;;;;7.72;2.80;;;;;;;9.70;78.94;99881.41;5014294;28;20054;-36
2022/02/14 10:26:38;;;;;;;7.63;2.78;;;;;;;9.69;79.12;99843.69;5014027;28;20045;-36
2022/02/14 10:29:27;;;;;;;5.80;2.67;;;;;;;9.52;80.07;99857.25;5014080;28;20037;-36
2022/02/14 10:31:55;;;;;;;7.60;3.13;;;;;;;9.76;79.02;99832.59;5014369;28;20097;-35
2022/02/14 10:34:38;;;;;;;7.75;2.63;;;;;;;10.14;77.91;99841.13;5013183;28;20028;-36
2022/02/14 10:37:05;;;;;;;8.47;2.63;;;;;;;10.16;77.28;99841.72;4996735;28;20104;-35
2022/02/14 10:39:32;;;;;;;8.35;2.40;;;;;;;10.57;74.58;99839.72;5014053;28;20034;-36
2022/02/14 10:42:00;;;;;;;5.50;1.95;;;;;;;10.23;75.32;99859.75;5014119;28;20030;-35
2022/02/14 10:47:21;;;;;;;6.32;1.50;;;;;;;9.93;73.45;99870.63;5013507;28;20095;-36
2022/02/14 10:50:12;;;;;;;6.13;1.70;;;;;;;9.80;73.36;99875.81;5012797;28;20079;-36
2022/02/14 10:52:46;;;;;;;6.70;1.55;;;;;;;9.75;71.72;99885.94;5010168;28;20108;-36
2022/02/14 10:55:13;;;;;;;3.45;1.30;;;;;;;9.83;70.78;99880.56;5012577;28;20025;-38
2022/02/14 10:57:41;;;;;;;5.00;1.00;;;;;;;9.47;71.21;99871.56;5012303;28;20065;-36
2022/02/14 11:00:14;;;;;;;5.20;1.25;;;;;;;9.52;71.36;99890.78;5012605;28;20496;-35
2022/02/14 11:02:45;;;;;;;4.00;1.63;;;;;;;9.47;72.59;99894.75;5012990;28;20163;-37
2022/02/14 11:05:15;;;;;;;5.57;1.73;;;;;;;9.56;72.96;99892.75;5013795;28;20125;-36
2022/02/14 11:07:41;;;;;;;10.02;1.83;;;;;;;9.69;73.50;99905.59;5013447;28;20030;-36
2022/02/14 11:10:09;;;;;;;6.90;1.45;;;;;;;9.44;72.79;99908.06;5013655;28;20023;-35
2022/02/14 11:12:39;;;;;;;4.53;1.60;;;;;;;9.39;73.93;99904.50;5013754;28;20108;-36
2022/02/14 11:15:07;;;;;;;5.82;1.60;;;;;;;9.22;74.14;99917.00;5013545;28;20022;-35
2022/02/14 11:17:43;;;;;;;10.32;1.88;;;;;;;9.24;74.08;99926.13;4996866;28;20081;-36
2022/02/14 11:20:09;;;;;;;7.20;1.85;;;;;;;9.15;74.22;99932.47;5013510;28;20450;-35
2022/02/14 11:22:40;;;;;;;5.90;2.10;;;;;;;9.29;73.98;99920.34;4996091;28;20384;-36
2022/02/14 11:25:08;;;;;;;5.93;1.90;;;;;;;9.21;73.52;99912.84;5012255;28;20041;-35
2022/02/14 11:27:38;;;;;;;11.35;2.15;;;;;;;9.21;72.35;99920.56;5011903;28;20070;-37
2022/02/14 11:30:09;;;;;;;9.23;1.83;;;;;;;9.24;72.68;99918.38;5012045;28;20488;-36
2022/02/14 11:32:39;;;;;;;6.82;1.77;;;;;;;9.32;72.89;99914.00;5011683;28;20026;-38
2022/02/14 11:35:14;;;;;;;8.00;2.33;;;;;;;9.36;72.42;99933.25;5010709;28;20022;-36
2022/02/14 11:37:46;;;;;;;7.22;1.90;;;;;;;9.78;70.89;99920.88;4992910;28;20029;-37
2022/02/14 11:40:40;;;;;;;7.63;1.50;;;;;;;11.64;63.12;99928.31;5011214;28;20025;-36